Cedar Lake, Texas
Current Conditions -  °F | °C
As of 4:35 PM on Monday 26 Jan 2015 (Local Time) from KBYY Reporting Station
Clear Clear  
Wind Chill: 67°   Ceiling: Unl
Heat Index: 67°   Visibility: 10mi
Dew Point: 41°   Wind: 5mph
Humidity: 39%   Direction: 310°NW
Pressure: 30.16"   Gusts: NA
Location:  28.8997°N, 95.7887°W
Report Text: KBYY 262235Z AUTO 31004KT 10SM CLR 18/04 A3016 RMK AO2 T01940049
Loading
Personal Weather Stations






























Interactive Weather Map New forecast layout! Learn more

10-Day Weather Forecast

Advertisements
Track Severe Weather on mobile